Weyerhaeuser, Wisconsin
Current Conditions -  °F | °C
As of 10:35 AM on Sunday 21 Dec 2014 (Local Time) from KY23 Reporting Station
Light Snow Light Snow  
Wind Chill: 22°   Ceiling: 400
Heat Index: 31°   Visibility: 1mi
Dew Point: 31°   Wind: 12mph
Humidity: 99%   Direction: 120°ESE
Pressure: 29.92"   Gusts: 18mph
Location:  45.42°N, 91.41°W
Report Text: KY23 211635Z AUTO 12010G16KT 1SM -SN OVC004 00/00 A2992 RMK AO2 T10041005
Loading
Personal Weather Stations






























Interactive Weather Map New forecast layout! Learn more

10-Day Weather Forecast

Advertisements
Track Severe Weather on mobile